Country
Station

 

Weather  for  Nordholz  -  Germany    Germany

  
27 °C (81 °F)
    
 
 

Current METAR for Nordholz is :

ETMN 171020Z 29010KT 9999 FEW050 SCT330 27/12 Q1013 BLU+BLU+

 

This is a report for Nordholz - Germany.
 
The report was made 44 minutes ago, at 10:20 UTC .
The wind was blowing at a speed of 5.1 meters per second (11.5 miles per hour) from west/northwest (290°).
 
The temperature was 27 °C (81 °F), with a dew-point at 12 °C (54 °F).
The temperature felt like 27 °C (81 °F).
 
The atmospheric pressure was 1013 hPa (29.91 inHg).
The relative humidity was 39.3%.
 
There were a few clouds at a height of 1524 meters (5000 feet) and scattered clouds at a height of 10058 meters (33000 feet).
 
The overall visibility was greater than 10 kilometers (6.2 miles).
 

 
 
 
 

Country :   A   B   C   D   E   F   G   H   I   J   K   L   M   N   O   P   Q   R   S   T   U   V   W   Y   Z

 

Site Info  |  Disclaimer  |  Credits  |  Privacy
Contact us  |  Add to favorites
© 2013-2018 METARs - All rights reserved